createdAt,value
2022-10-21T00:01:52.184Z,-28.4
2022-10-21T00:03:53.535Z,-28.5
2022-10-21T00:05:55.112Z,-28.5
2022-10-21T00:07:56.496Z,-28.4
2022-10-21T00:09:57.528Z,-28.1
2022-10-21T00:16:02.039Z,-28.4
2022-10-21T00:18:03.879Z,-28.3
2022-10-21T00:20:05.785Z,-28.3
2022-10-21T00:22:07.434Z,-27.9
2022-10-21T00:24:08.569Z,-28
2022-10-21T00:26:09.903Z,-27.9
2022-10-21T00:30:12.378Z,-28
2022-10-21T00:32:13.409Z,-28
2022-10-21T00:34:14.319Z,-28.2
2022-10-21T00:36:15.867Z,-28.1
2022-10-21T00:42:19.801Z,-27.9
2022-10-21T00:44:21.014Z,-28.2
2022-10-21T00:46:22.162Z,-27.9
2022-10-21T00:48:23.849Z,-28
2022-10-21T00:50:25.066Z,-28
2022-10-21T00:52:26.468Z,-28.2
2022-10-21T00:54:27.471Z,-28
2022-10-21T00:56:28.795Z,-28.2
2022-10-21T00:58:30.385Z,-28.6
2022-10-21T01:00:31.482Z,-28.2
2022-10-21T01:02:32.874Z,-28
2022-10-21T01:04:34.676Z,-27.7
2022-10-21T01:06:35.618Z,-28.3
2022-10-21T01:08:37.012Z,-28
2022-10-21T01:10:38.106Z,-28.2
2022-10-21T01:12:39.244Z,-28.1
2022-10-21T01:14:41.067Z,-28.1
2022-10-21T01:16:44.314Z,-27.9
2022-10-21T01:18:43.936Z,-27.9
2022-10-21T01:20:45.474Z,-28
2022-10-21T01:22:47.015Z,-28.2
2022-10-21T01:24:48.001Z,-27.9
2022-10-21T01:26:48.943Z,-27.8
2022-10-21T01:28:50.014Z,-28
2022-10-21T01:30:51.049Z,-27.9
2022-10-21T01:32:52.194Z,-28.2
2022-10-21T01:34:53.812Z,-28.4
2022-10-21T01:36:55.427Z,-28
2022-10-21T01:40:58.290Z,-27.9
2022-10-21T01:42:59.246Z,-28
2022-10-21T01:45:00.460Z,-27.9
2022-10-21T01:47:01.540Z,-27.8
2022-10-21T01:49:02.579Z,-28
2022-10-21T01:51:04.329Z,-28.2
2022-10-21T01:57:09.472Z,-28
2022-10-21T01:59:10.932Z,-28.2
2022-10-21T02:01:12.035Z,-27.9
2022-10-21T02:03:13.569Z,-27.8
2022-10-21T02:05:15.273Z,-27.9
2022-10-21T02:07:16.165Z,-28.1
2022-10-21T02:09:17.369Z,-27.8
2022-10-21T02:13:20.351Z,-28.1
2022-10-21T02:15:22.141Z,-28
2022-10-21T02:17:23.465Z,-28.4
2022-10-21T02:21:26.246Z,-28.2
2022-10-21T02:23:27.272Z,-28
2022-10-21T02:25:28.183Z,-28
2022-10-21T02:27:29.581Z,-28.2
2022-10-21T02:29:30.997Z,-28
2022-10-21T02:31:32.783Z,-27.9
2022-10-21T02:33:34.628Z,-27.9
2022-10-21T02:39:38.880Z,-27.9
2022-10-21T02:41:39.914Z,-27.7
2022-10-21T02:43:40.856Z,-28
2022-10-21T02:47:44.020Z,-28.2
2022-10-21T02:49:44.996Z,-27.8
2022-10-21T02:51:46.551Z,-28
2022-10-21T02:53:48.169Z,-27.9
2022-10-21T02:55:49.414Z,-28
2022-10-21T02:57:51.261Z,-27.8
2022-10-21T02:59:52.648Z,-28.3
2022-10-21T03:01:53.601Z,-28
2022-10-21T03:03:55.226Z,-27.8
2022-10-21T03:05:57.060Z,-28.2
2022-10-21T03:07:58.705Z,-27.9
2022-10-21T03:10:00.414Z,-28.2
2022-10-21T03:12:01.747Z,-28.2
2022-10-21T03:14:03.106Z,-28
2022-10-21T03:16:04.095Z,-27.8
2022-10-21T03:22:08.164Z,-27.9
2022-10-21T03:24:15.114Z,-27.9
2022-10-21T03:26:11.620Z,-28.2
2022-10-21T03:28:12.647Z,-28.3
2022-10-21T03:30:13.892Z,-27.9
2022-10-21T03:32:15.515Z,-27.7
2022-10-21T03:34:16.991Z,-28.3
2022-10-21T03:36:18.677Z,-28.3
2022-10-21T03:38:20.527Z,-27.7
2022-10-21T03:40:22.141Z,-28
2022-10-21T03:41:05.976Z,-28
2022-10-21T03:47:10.340Z,-28.2
2022-10-21T03:49:17.010Z,-28
2022-10-21T03:51:12.920Z,-28.2
2022-10-21T03:53:30.793Z,-28
2022-10-21T03:55:16.262Z,-27.8
2022-10-21T03:59:19.240Z,-27.9
2022-10-21T04:01:20.444Z,-27.9
2022-10-21T04:03:22.096Z,-28.1
2022-10-21T04:05:23.663Z,-28.1
2022-10-21T04:07:24.845Z,-28
2022-10-21T04:09:25.793Z,-28.3
2022-10-21T04:15:30.418Z,-28.2
2022-10-21T04:17:31.881Z,-28.4
2022-10-21T04:19:33.610Z,-28
2022-10-21T04:21:35.327Z,-27.9
2022-10-21T04:23:36.321Z,-28.3
2022-10-21T04:25:37.380Z,-28.2
2022-10-21T04:27:38.960Z,-27.9
2022-10-21T04:31:41.969Z,-27.9
2022-10-21T04:33:43.235Z,-28
2022-10-21T04:35:45.109Z,-27.7
2022-10-21T04:37:46.905Z,-28.1
2022-10-21T04:39:48.206Z,-28.2
2022-10-21T04:41:49.386Z,-28.2
2022-10-21T04:43:50.993Z,-28.1
2022-10-21T04:45:52.438Z,-28
2022-10-21T04:47:53.698Z,-28
2022-10-21T04:49:55.266Z,-28.1
2022-10-21T04:51:56.877Z,-28.2
2022-10-21T04:58:00.467Z,-28
2022-10-21T05:00:01.504Z,-27.9
2022-10-21T05:02:03.316Z,-28
2022-10-21T05:06:05.845Z,-28.2
2022-10-21T05:08:10.577Z,-28.3
2022-10-21T05:12:09.994Z,-28.2
2022-10-21T05:14:10.992Z,-28.1
2022-10-21T05:16:12.547Z,-28.2
2022-10-21T05:18:13.726Z,-28.2
2022-10-21T05:20:15.448Z,-27.9
2022-10-21T05:24:18.626Z,-27.9
2022-10-21T05:28:20.581Z,-28.1
2022-10-21T05:30:22.161Z,-28.2
2022-10-21T05:32:23.357Z,-28
2022-10-21T05:34:24.364Z,-27.9
2022-10-21T05:40:28.094Z,-28.3
2022-10-21T05:42:29.514Z,-28.2
2022-10-21T05:44:31.182Z,-28
2022-10-21T05:46:32.466Z,-28
2022-10-21T05:48:34.214Z,-27.9
2022-10-21T05:50:35.356Z,-28.3
2022-10-21T05:52:37.126Z,-28.3
2022-10-21T05:54:38.550Z,-28.3
2022-10-21T05:56:39.673Z,-28.3
2022-10-21T05:58:41.474Z,-28.2
2022-10-21T06:00:42.552Z,-28
2022-10-21T06:02:44.275Z,-28.1
2022-10-21T06:06:47.826Z,-28.2
2022-10-21T06:08:49.328Z,-28
2022-10-21T06:10:50.587Z,-28
2022-10-21T06:12:51.990Z,-27.9
2022-10-21T06:14:52.920Z,-28
2022-10-21T06:16:54.412Z,-28
2022-10-21T06:18:55.495Z,-28.4
2022-10-21T06:20:56.538Z,-27.8
2022-10-21T06:22:58.107Z,-27.9
2022-10-21T06:25:00.003Z,-28.1
2022-10-21T06:27:01.656Z,-27.9
2022-10-21T06:29:03.473Z,-28.2
2022-10-21T06:31:05.301Z,-27.8
2022-10-21T06:33:06.563Z,-28.1
2022-10-21T06:37:09.019Z,-28.1
2022-10-21T06:39:10.785Z,-28.5
2022-10-21T06:41:12.439Z,-28.1
2022-10-21T06:43:13.588Z,-28.3
2022-10-21T06:45:14.582Z,-28.1
2022-10-21T06:47:16.243Z,-28
2022-10-21T06:49:18.323Z,-28.3
2022-10-21T06:51:19.778Z,-28.2
2022-10-21T06:53:20.951Z,-27.9
2022-10-21T06:55:22.495Z,-28
2022-10-21T06:57:23.441Z,-28
2022-10-21T06:59:24.913Z,-28
2022-10-21T07:03:27.874Z,-28
2022-10-21T07:05:28.866Z,-28.2
2022-10-21T07:09:32.045Z,-28
2022-10-21T07:11:33.827Z,-28.4
2022-10-21T07:13:34.975Z,-28.1
2022-10-21T07:15:36.757Z,-27.9
2022-10-21T07:19:39.904Z,-28.2
2022-10-21T07:21:40.934Z,-28.3
2022-10-21T07:23:41.906Z,-27.9
2022-10-21T07:25:43.041Z,-27.9
2022-10-21T07:29:45.394Z,-27.8
2022-10-21T07:31:47.041Z,-28.1
2022-10-21T07:33:48.520Z,-27.8
2022-10-21T07:35:49.585Z,-28.2
2022-10-21T07:37:50.540Z,-28.1
2022-10-21T07:39:51.531Z,-27.8
2022-10-21T07:43:54.387Z,-27.8
2022-10-21T07:47:56.702Z,-28
2022-10-21T07:49:57.925Z,-28
2022-10-21T07:51:59.608Z,-28.3
2022-10-21T07:54:00.581Z,-27.9
2022-10-21T07:58:03.594Z,-28.1
2022-10-21T08:00:04.470Z,-28
2022-10-21T08:04:06.838Z,-27.9
2022-10-21T08:06:08.059Z,-28.2
2022-10-21T08:08:09.261Z,-28
2022-10-21T08:10:11.068Z,-27.9
2022-10-21T08:16:14.657Z,-28.4
2022-10-21T08:18:16.330Z,-28.1
2022-10-21T08:20:17.398Z,-28
2022-10-21T08:22:18.912Z,-28.2
2022-10-21T08:24:20.700Z,-27.9
2022-10-21T08:26:21.831Z,-28
2022-10-21T08:28:23.346Z,-28.2
2022-10-21T08:30:24.624Z,-28
2022-10-21T08:32:26.427Z,-28.2
2022-10-21T08:34:27.743Z,-27.9
2022-10-21T08:36:29.222Z,-28
2022-10-21T08:38:30.191Z,-19.4
2022-10-21T08:40:31.990Z,-17.2
2022-10-21T08:42:33.415Z,-15
2022-10-21T08:44:34.953Z,-15.6
2022-10-21T08:46:35.981Z,-11.7
2022-10-21T08:48:36.891Z,-13.1
2022-10-21T08:50:38.500Z,-15.1
2022-10-21T08:52:39.870Z,-18.79
2022-10-21T08:54:41.180Z,-23.6
2022-10-21T08:56:42.923Z,-27.3
2022-10-21T08:58:44.418Z,-28
2022-10-21T09:00:45.851Z,-27.9
2022-10-21T09:02:47.536Z,-28.3
2022-10-21T09:04:48.693Z,-28
2022-10-21T09:06:49.817Z,-27.6
2022-10-21T09:08:52.501Z,-27.3
2022-10-21T09:10:52.310Z,-28
2022-10-21T09:14:55.474Z,-27.8
2022-10-21T09:16:57.246Z,-28.2
2022-10-21T09:18:58.568Z,-27.8
2022-10-21T09:21:03.321Z,-28.3
2022-10-21T09:23:01.419Z,-28.2
2022-10-21T09:25:03.230Z,-28.2
2022-10-21T09:27:04.224Z,-28
2022-10-21T09:29:05.922Z,-27.7
2022-10-21T09:31:07.139Z,-27.9
2022-10-21T09:33:08.706Z,-28.2
2022-10-21T09:35:10.466Z,-27.9
2022-10-21T09:37:12.120Z,-28.2
2022-10-21T09:39:13.913Z,-28.2
2022-10-21T09:41:14.892Z,-28.3
2022-10-21T09:43:16.593Z,-28
2022-10-21T09:45:18.019Z,-28.3
2022-10-21T09:47:19.088Z,-28.3
2022-10-21T09:51:21.341Z,-27.9
2022-10-21T09:53:24.161Z,-27.9
2022-10-21T09:55:24.331Z,-28
2022-10-21T09:57:25.474Z,-28.2
2022-10-21T09:59:30.476Z,-27.9
2022-10-21T10:01:27.364Z,-28
2022-10-21T10:03:28.600Z,-27.9
2022-10-21T10:05:29.506Z,-27.9
2022-10-21T10:07:30.606Z,-27.8
2022-10-21T10:11:33.708Z,-27.9
2022-10-21T10:13:35.465Z,-27.6
2022-10-21T10:15:37.033Z,-28
2022-10-21T10:17:38.678Z,-28.3
2022-10-21T10:19:39.624Z,-27.8
2022-10-21T10:23:42.018Z,-28
2022-10-21T10:25:43.044Z,-28
2022-10-21T10:26:45.031Z,-27.7
2022-10-21T10:28:46.680Z,-28.1
2022-10-21T10:30:48.029Z,-28.3
2022-10-21T10:32:49.062Z,-28.2
2022-10-21T10:34:50.205Z,-28.1
2022-10-21T10:38:52.784Z,-27.9
2022-10-21T10:40:55.222Z,-27.8
2022-10-21T10:42:55.504Z,-28.1
2022-10-21T10:44:56.677Z,-28
2022-10-21T10:46:58.503Z,-28.1
2022-10-21T10:48:59.500Z,-18.6
2022-10-21T10:51:00.435Z,-18.79
2022-10-21T10:53:01.838Z,-20.5
2022-10-21T10:55:02.775Z,-19.6
2022-10-21T10:57:04.407Z,-13.5
2022-10-21T11:01:07.780Z,-5.5
2022-10-21T11:03:09.495Z,-9.1
2022-10-21T11:05:10.637Z,-8.1
2022-10-21T11:07:12.469Z,-3.6
2022-10-21T11:09:14.048Z,-0.5
2022-10-21T11:11:15.387Z,0.8
2022-10-21T11:17:20.019Z,2.2
2022-10-21T11:19:21.548Z,9.39
2022-10-21T11:21:22.761Z,30.3
2022-10-21T11:23:24.470Z,37.2
2022-10-21T11:25:26.239Z,58.3
2022-10-21T11:27:27.527Z,82.8
2022-10-21T11:29:29.075Z,83
2022-10-21T11:31:29.936Z,83
2022-10-21T11:33:31.070Z,82.8
2022-10-21T11:35:32.813Z,24.5
2022-10-21T11:37:34.431Z,22
2022-10-21T11:39:35.970Z,16.7
2022-10-21T11:41:36.841Z,8.89
2022-10-21T11:43:38.200Z,8.1
2022-10-21T11:45:39.175Z,4.19
2022-10-21T11:47:40.483Z,11.6
2022-10-21T11:49:41.995Z,5.7
2022-10-21T11:53:44.710Z,-10.7
2022-10-21T11:55:46.549Z,-7.5
2022-10-21T11:57:47.663Z,-4.19
2022-10-21T11:59:51.646Z,-10.4
2022-10-21T12:01:50.192Z,17
2022-10-21T12:03:51.689Z,22
2022-10-21T12:05:52.974Z,38.59
2022-10-21T12:07:54.086Z,40.9
2022-10-21T12:09:55.665Z,52.9
2022-10-21T12:11:57.003Z,81.4
2022-10-21T12:13:58.501Z,81.5
2022-10-21T12:16:00.101Z,81.9
2022-10-21T12:18:01.342Z,81.4
2022-10-21T12:20:02.363Z,81.1
2022-10-21T12:22:03.240Z,80.3
2022-10-21T12:24:04.599Z,79.69
2022-10-21T12:26:06.200Z,79.5
2022-10-21T12:28:07.282Z,38.7
2022-10-21T12:30:08.853Z,26.2
2022-10-21T12:32:10.558Z,20.4
2022-10-21T12:42:16.815Z,-2.4
2022-10-21T12:44:17.899Z,0.6
2022-10-21T12:46:18.905Z,6.7
2022-10-21T12:48:20.329Z,12.1
2022-10-21T12:50:21.692Z,17.9
2022-10-21T12:52:23.215Z,4.6
2022-10-21T12:54:26.596Z,1.5
2022-10-21T12:56:26.693Z,0.6
2022-10-21T12:58:28.194Z,3
2022-10-21T13:00:30.021Z,0.8
2022-10-21T13:02:31.711Z,7.1
2022-10-21T13:06:35.144Z,13.9
2022-10-21T13:08:36.723Z,0.5
2022-10-21T13:12:40.434Z,2.7
2022-10-21T13:14:41.204Z,-0.8
2022-10-21T13:16:42.829Z,0
2022-10-21T13:18:44.264Z,1.3
2022-10-21T13:20:45.861Z,-2.5
2022-10-21T13:22:47.236Z,-1.5
2022-10-21T13:24:48.900Z,3.5
2022-10-21T13:26:50.064Z,4
2022-10-21T13:28:51.230Z,6.7
2022-10-21T13:30:52.380Z,6.8
2022-10-21T13:32:53.307Z,7.8
2022-10-21T13:34:55.122Z,11.6
2022-10-21T13:36:56.669Z,25
2022-10-21T13:38:58.364Z,32.09
2022-10-21T13:41:00.116Z,19.9
2022-10-21T13:43:00.949Z,74.3
2022-10-21T13:47:03.321Z,73.1
2022-10-21T13:49:04.535Z,72.4
2022-10-21T13:51:05.642Z,71.5
2022-10-21T13:53:07.423Z,70.4
2022-10-21T13:55:08.691Z,70.1
2022-10-21T13:57:10.384Z,69.4
2022-10-21T13:59:11.214Z,69
2022-10-21T14:01:12.445Z,68.1
2022-10-21T14:03:13.787Z,67.3
2022-10-21T14:05:14.612Z,66.1
2022-10-21T14:07:15.538Z,65.19
2022-10-21T14:09:16.596Z,64.19
2022-10-21T14:11:18.039Z,64.6
2022-10-21T14:13:19.493Z,63.6
2022-10-21T14:15:21.189Z,63.4
2022-10-21T14:23:26.102Z,57.8
2022-10-21T14:25:27.216Z,57.6
2022-10-21T14:27:28.402Z,-16
2022-10-21T14:29:29.634Z,-16.4
2022-10-21T14:31:30.948Z,-10.3
2022-10-21T14:33:31.972Z,-17.5
2022-10-21T14:39:36.621Z,-21.9
2022-10-21T14:41:37.813Z,-21.1
2022-10-21T14:43:38.935Z,-17.79
2022-10-21T14:45:39.819Z,-24.2
2022-10-21T14:47:40.734Z,-25.3
2022-10-21T14:49:41.991Z,-25.9
2022-10-21T14:53:44.619Z,-27.1
2022-10-21T14:55:46.248Z,-26.7
2022-10-21T14:57:47.682Z,-28
2022-10-21T14:59:48.792Z,-28.2
2022-10-21T15:05:53.188Z,-28.1
2022-10-21T15:07:54.805Z,-28
2022-10-21T15:09:55.711Z,-27.7
2022-10-21T15:11:57.446Z,-28.3
2022-10-21T15:13:59.051Z,-28
2022-10-21T15:16:00.582Z,-28.2
2022-10-21T15:20:02.832Z,-28
2022-10-21T15:22:04.113Z,-28.1
2022-10-21T15:24:05.166Z,-27.9
2022-10-21T15:26:06.971Z,-28.2
2022-10-21T15:28:07.884Z,-28.2
2022-10-21T15:30:09.495Z,-27.8
2022-10-21T15:32:11.041Z,-28.4
2022-10-21T15:34:12.515Z,-28.2
2022-10-21T15:36:13.681Z,-28.2
2022-10-21T15:38:15.053Z,-28.2
2022-10-21T15:40:16.063Z,-27.9
2022-10-21T15:42:17.136Z,-28.2
2022-10-21T15:44:18.172Z,-28.1
2022-10-21T15:46:19.760Z,-27.9
2022-10-21T15:48:21.315Z,-28.3
2022-10-21T15:52:24.107Z,-28.3
2022-10-21T15:54:25.149Z,-28.2
2022-10-21T15:56:26.580Z,-28.2
2022-10-21T15:58:28.221Z,-28.2
2022-10-21T16:04:31.780Z,-28.1
2022-10-21T16:06:33.608Z,-28.2
2022-10-21T16:08:43.143Z,-28.2
2022-10-21T16:10:36.200Z,-27.9
2022-10-21T16:12:37.846Z,-27.9
2022-10-21T16:14:39.071Z,-28
2022-10-21T16:18:41.812Z,-28
2022-10-21T16:20:43.401Z,-27.7
2022-10-21T16:22:45.078Z,-28
2022-10-21T16:24:46.187Z,-28.3
2022-10-21T16:26:47.828Z,-27.9
2022-10-21T16:28:49.438Z,-28
2022-10-21T16:30:50.320Z,-28.3
2022-10-21T16:32:51.298Z,-27.9
2022-10-21T16:34:52.634Z,-27.9
2022-10-21T16:36:53.995Z,-28
2022-10-21T16:40:57.123Z,-28
2022-10-21T16:42:58.437Z,-27.9
2022-10-21T16:44:59.946Z,-27.7
2022-10-21T16:47:01.616Z,-28.2
2022-10-21T16:49:03.330Z,-28.4
2022-10-21T16:51:05.168Z,-28
2022-10-21T16:53:06.546Z,-27.8
2022-10-21T16:55:08.213Z,-28
2022-10-21T16:57:09.490Z,-27.9
2022-10-21T17:03:13.597Z,-28
2022-10-21T17:05:15.135Z,-27.9
2022-10-21T17:07:16.634Z,-28.1
2022-10-21T17:09:18.244Z,-28.2
2022-10-21T17:11:19.087Z,-28.2
2022-10-21T17:14:04.509Z,-27.9
2022-10-21T17:16:05.773Z,-28.2
2022-10-21T17:18:07.209Z,-27.8
2022-10-21T17:24:10.617Z,-28.1
2022-10-21T17:26:11.656Z,-27.9
2022-10-21T17:28:13.469Z,-28
2022-10-21T17:30:15.071Z,-27.9
2022-10-21T17:32:16.940Z,-27.9
2022-10-21T17:34:18.249Z,-28.2
2022-10-21T17:38:20.186Z,-28
2022-10-21T17:40:21.822Z,-28
2022-10-21T17:42:23.456Z,-28
2022-10-21T17:44:24.508Z,-28.3
2022-10-21T17:46:25.858Z,-27.9
2022-10-21T17:48:26.960Z,-28
2022-10-21T17:50:28.053Z,-28
2022-10-21T17:54:32.684Z,-27.6
2022-10-21T17:56:32.964Z,-27.8
2022-10-21T17:58:34.547Z,-28
2022-10-21T18:00:35.165Z,-27.9
2022-10-21T18:02:36.342Z,-28.3
2022-10-21T18:04:37.749Z,-28
2022-10-21T18:06:39.538Z,-28.1
2022-10-21T18:10:42.296Z,-28.1
2022-10-21T18:12:43.516Z,-27.7
2022-10-21T18:14:44.587Z,-27.9
2022-10-21T18:16:45.929Z,-28
2022-10-21T18:18:47.190Z,-28
2022-10-21T18:22:50.409Z,-28
2022-10-21T18:24:51.532Z,-27.7
2022-10-21T18:26:52.515Z,-28
2022-10-21T18:28:53.525Z,-28.2
2022-10-21T18:30:54.782Z,-27.9
2022-10-21T18:32:56.260Z,-27.9
2022-10-21T18:36:58.687Z,-28
2022-10-21T18:38:59.865Z,-27.7
2022-10-21T18:41:08.460Z,-28.2
2022-10-21T18:43:02.723Z,-28
2022-10-21T18:45:04.563Z,-27.8
2022-10-21T18:47:06.308Z,-27.8
2022-10-21T18:49:07.332Z,-28.1
2022-10-21T18:51:08.233Z,-28
2022-10-21T18:53:09.527Z,-28
2022-10-21T18:55:11.360Z,-28
2022-10-21T18:59:14.025Z,-28
2022-10-21T19:01:15.929Z,-28
2022-10-21T19:03:17.388Z,-27.9
2022-10-21T19:05:18.468Z,-28.1
2022-10-21T19:09:21.942Z,-28.1
2022-10-21T19:11:23.564Z,-28.2
2022-10-21T19:13:24.631Z,-27.9
2022-10-21T19:15:25.712Z,-28.3
2022-10-21T19:19:27.613Z,-27.8
2022-10-21T19:21:29.009Z,-27.8
2022-10-21T19:23:30.217Z,-27.7
2022-10-21T19:25:31.347Z,-28.2
2022-10-21T19:29:34.432Z,-27.9
2022-10-21T19:31:36.300Z,-27.9
2022-10-21T19:33:36.602Z,-27.9
2022-10-21T19:35:37.516Z,-28
2022-10-21T19:37:38.733Z,-27.9
2022-10-21T19:39:40.527Z,-28
2022-10-21T19:41:42.411Z,-28
2022-10-21T19:43:43.817Z,-28
2022-10-21T19:45:45.202Z,-28
2022-10-21T19:47:46.539Z,-28
2022-10-21T19:49:47.567Z,-28
2022-10-21T19:51:49.123Z,-27.9
2022-10-21T19:53:50.946Z,-27.9
2022-10-21T19:55:52.196Z,-27.9
2022-10-21T19:57:53.850Z,-28
2022-10-21T20:01:57.105Z,-28.2
2022-10-21T20:03:58.378Z,-28
2022-10-21T20:05:59.204Z,-28.1
2022-10-21T20:08:00.680Z,-28.2
2022-10-21T20:10:01.832Z,-28
2022-10-21T20:12:03.016Z,-27.9
2022-10-21T20:14:03.935Z,-27.8
2022-10-21T20:16:04.907Z,-27.8
2022-10-21T20:18:06.124Z,-28.2
2022-10-21T20:20:07.437Z,-28
2022-10-21T20:22:09.142Z,-28.3
2022-10-21T20:24:10.213Z,-27.9
2022-10-21T20:26:11.917Z,-27.8
2022-10-21T20:28:12.876Z,-27.9
2022-10-21T20:30:14.397Z,-27.7
2022-10-21T20:32:16.162Z,-28.1
2022-10-21T20:34:17.196Z,-27.9
2022-10-21T20:36:18.408Z,-28
2022-10-21T20:40:21.736Z,-28
2022-10-21T20:42:22.792Z,-27.7
2022-10-21T20:44:23.803Z,-28.1
2022-10-21T20:46:25.001Z,-28.2
2022-10-21T20:50:27.912Z,-28.2
2022-10-21T20:52:29.590Z,-28.1
2022-10-21T20:54:30.995Z,-28.3
2022-10-21T20:56:32.109Z,-27.9
2022-10-21T20:58:33.642Z,-27.9
2022-10-21T21:00:35.039Z,-27.8
2022-10-21T21:02:36.611Z,-28.1
2022-10-21T21:04:37.797Z,-27.9
2022-10-21T21:06:39.601Z,-27.9
2022-10-21T21:08:44.659Z,-28
2022-10-21T21:10:42.792Z,-28
2022-10-21T21:12:43.653Z,-28
2022-10-21T21:16:46.666Z,-28.3
2022-10-21T21:18:48.109Z,-28
2022-10-21T21:20:49.731Z,-28
2022-10-21T21:22:51.517Z,-28
2022-10-21T21:24:52.704Z,-28.2
2022-10-21T21:28:55.631Z,-28.1
2022-10-21T21:30:56.924Z,-28.3
2022-10-21T21:32:58.325Z,-28.1
2022-10-21T21:35:02.247Z,-27.9
2022-10-21T21:37:00.814Z,-28
2022-10-21T21:39:01.893Z,-28.1
2022-10-21T21:43:05.051Z,-28.1
2022-10-21T21:45:06.094Z,-28.2
2022-10-21T21:47:07.449Z,-28
2022-10-21T21:49:08.457Z,-27.9
2022-10-21T21:51:09.485Z,-28.2
2022-10-21T21:53:10.703Z,-28.4
2022-10-21T21:55:12.447Z,-28.1
2022-10-21T21:57:27.137Z,-28
2022-10-21T21:59:15.901Z,-28.3
2022-10-21T22:01:17.248Z,-28.3
2022-10-21T22:03:18.133Z,-28.4
2022-10-21T22:05:21.526Z,-28.3
2022-10-21T22:07:20.755Z,-28.2
2022-10-21T22:09:22.174Z,-28
2022-10-21T22:11:23.724Z,-28.5
2022-10-21T22:13:25.142Z,-28.2
2022-10-21T22:15:46.892Z,-28.2
2022-10-21T22:17:28.336Z,-28.4
2022-10-21T22:19:29.791Z,-28.2
2022-10-21T22:21:31.041Z,-28.2
2022-10-21T22:27:36.146Z,-28.1
2022-10-21T22:29:38.027Z,-28.2
2022-10-21T22:31:39.150Z,-28
2022-10-21T22:33:40.551Z,-28.3
2022-10-21T22:35:41.882Z,-28.4
2022-10-21T22:37:42.972Z,-28.2
2022-10-21T22:41:45.203Z,-28.2
2022-10-21T22:43:46.295Z,-28.2
2022-10-21T22:45:48.018Z,-28.4
2022-10-21T22:47:48.830Z,-28.6
2022-10-21T22:49:50.667Z,-28.2
2022-10-21T22:53:55.168Z,-28.3
2022-10-21T22:57:56.299Z,-28.8
2022-10-21T22:59:58.119Z,-28.4
2022-10-21T23:04:00.464Z,-28.4
2022-10-21T23:10:03.841Z,-28.7
2022-10-21T23:12:05.367Z,-28.5
2022-10-21T23:14:08.620Z,-28.4
2022-10-21T23:16:07.715Z,-28.6
2022-10-21T23:18:08.901Z,-28.4
2022-10-21T23:20:10.475Z,-28.5
2022-10-21T23:22:12.227Z,-28.6
2022-10-21T23:24:13.169Z,-28.5
2022-10-21T23:26:14.430Z,-28.2
2022-10-21T23:28:15.542Z,-28.4
2022-10-21T23:32:18.293Z,-28.5
2022-10-21T23:34:20.081Z,-28.5
2022-10-21T23:36:21.799Z,-28.7
2022-10-21T23:38:23.207Z,-28.4
2022-10-21T23:40:24.235Z,-28.6
2022-10-21T23:42:25.354Z,-28.6
2022-10-21T23:44:26.284Z,-28.6
2022-10-21T23:48:28.475Z,-28.4
2022-10-21T23:50:30.138Z,-28.5
2022-10-21T23:52:31.921Z,-28.6
2022-10-21T23:54:33.596Z,-28.5
2022-10-21T23:56:35.001Z,-28.5
2022-10-21T23:59:19.717Z,-28.4
